Alto, NM

7:12 AM MST on January 31, 2015 (GMT -0700)
Eagle Creek Canyon | Change Station
CLOSE
Current Station
Personal Weather Station
Location: Ruidoso, NM
Elevation: 7200 ft
Nearby Weather Stations
Active Advisory: Winter Storm Warning

Elev 7200 ft 33.39 °N, 105.65 °W | Updated 7 seconds ago

Fog
Fog
31.5 °F
Feels Like 32 °F
N
0.0
Wind Variable Wind from East
Gusts 0.0 mph

Today
High -- | Low -- °F
--% Chance of Precip.
Yesterday
High -- | Low -- °F
Precip. -- in
6:59 AM 5:33 PM
Waxing Gibbous, 90% visible
Pressure 29.95 in
Visibility 0.5 miles
Clouds Overcast 100 ft
Windchill 32 °F
Dew Point 29 °F
Humidity 92%
Rainfall 0.02 in
Snow Depth Not available.
UV 0 out of 12
Pollen .60 out of 12
Air Quality Not available.
Flu Activity Not available.
METAR KSRR 311355Z AUTO 00000KT 1/2SM FZFG OVC001 M02/M02 A2995 RMK AO2

More Conditions Fewer Conditions

Pressure 29.95 in
Visibility 0.5 miles
Clouds Overcast 100 ft
Windchill 32 °F
Dew Point 29 °F
Humidity 92%
Rainfall 0.02 in
Snow Depth Not available.
UV 0 out of 12
Pollen .60 out of 12
Air Quality Not available.
Flu Activity Not available.
METAR KSRR 311355Z AUTO 00000KT 1/2SM FZFG OVC001 M02/M02 A2995 RMK AO2

More Conditions Fewer Conditions

Nowcast | as of 6:04 am MST on January 31, 2015

Light to moderate rain and snow will continue across central New Mexico through the early morning. Roads impacted will include Interstate 25 from La Bajada Hill to the Colorado border and Highway 285 from Clines Corners to the Colorado border. Expect 1 to 2 inches of additional snow accumulation...but less than 1 inch below 7000 feet. In addition to the snow...patchy fog will reduce visibilities below a half mile at times...including places like Raton and Ruidoso. For the latest Road conditions visit N M roads dot com or dial 5 1 1.

×

10-Day Weather Forecast

Almanac

Astronomy

Jan. 31, 2015 Rise Set
Actual Time
Civil Twilight
Nautical Twilight
Astronomical Twilight
Moon
Length of Visible Light
Length of Day
Tomorrow will be .
, % of the Moon is Illuminated

Today's Extremes

State Highs State Lows

Community

WunderPhotos

Upload Photos

1,792,058 photos uploaded!

WunderBlogs® & News

Nearby

Air Quality

  Air Quality AQ Index Pollutant
Not available.

Snow Depth

Station Depth Elevation

Earthquake Activity

City Distance Mag. Time & Date
Minimum magnitude displayed is 2.5.

Coastal Water Temperatures

Place Temperature

Nearby Weather Stations